Accueil
METAR-TAF:

METAR-TAF

Aéroports :

Makkovik, Terre-Neuve-et-Labrador, Canada

latitude: 55-05N, longitude: 059-11W, altitude: 71 m

Observation

Le bulletin a été fait il y a 7 heures et 15 minutes, à 20:00 UTC
Vent 3 kt de nord-ouest
Température 3°C
Humidité 87%
Pression 1019 hPa
Visibilité: 24.1 km
Quelques nuages à une hauteur de 800 ft
Nuages fragmentés à une hauteur de 2000 ft

METAR: CYFT 232000Z 32003KT 15SM FEW008 BKN020 03/01 A3010 RMK ST1SC7 TR ST LAST STFD OBS/NEXT240900Z SLP199

Heure: 00:15 (03:15 UTC)


TAF: absent

Observations et prévisions météorologiques de plus de 4000 aéroports (messages METAR et TAF).

Les stations disponibles sont représentées par des disques jaunes et rouges sur la carte.

Passer la souris dessus pour voir le nom de la station.

Cliquer dessus pour voir les observations et prévisions météorologiques.

Pour changer de carte: cliquez sur les boutons verts avec une croix noire pour zoomer, sur le bouton vert avec un tiret pour effectuer un zoom arrière, ou sur les flèches vertes pour les cartes adjacentes.


METAR-TAF: